createdAt,value
2022-08-21T00:01:57.869Z,76.6
2022-08-21T00:13:58.009Z,80.2
2022-08-21T00:25:57.947Z,80.5
2022-08-21T00:37:58.544Z,76.4
2022-08-21T00:49:58.188Z,75.2
2022-08-21T01:01:58.300Z,78.0
2022-08-21T01:13:57.881Z,79.5
2022-08-21T01:25:57.991Z,81.9
2022-08-21T01:37:58.052Z,81.3
2022-08-21T01:49:57.989Z,83.0
2022-08-21T02:01:58.333Z,82.8
2022-08-21T02:13:58.008Z,86.3
2022-08-21T02:25:57.976Z,89.0
2022-08-21T02:37:58.048Z,88.5
2022-08-21T02:49:57.931Z,89.3
2022-08-21T03:01:58.259Z,89.4
2022-08-21T03:13:58.237Z,90.3
2022-08-21T03:25:57.996Z,90.2
2022-08-21T03:37:57.977Z,90.1
2022-08-21T03:49:57.852Z,92.5
2022-08-21T04:01:58.125Z,92.9
2022-08-21T04:13:58.197Z,92.6
2022-08-21T04:25:57.901Z,92.2
2022-08-21T04:37:57.876Z,92.1
2022-08-21T04:49:58.214Z,92.6
2022-08-21T05:01:57.972Z,91.5
2022-08-21T05:13:58.080Z,83.8
2022-08-21T05:25:58.237Z,76.3
2022-08-21T05:37:57.933Z,66.4
2022-08-21T05:49:57.882Z,64.2
2022-08-21T06:02:01.166Z,64.3
2022-08-21T06:13:57.931Z,63.3
2022-08-21T06:25:58.151Z,64.9
2022-08-21T06:37:58.501Z,67.7
2022-08-21T06:49:58.096Z,51.4
2022-08-21T07:01:58.082Z,67.8
2022-08-21T07:13:58.318Z,64.9
2022-08-21T07:25:57.939Z,57.0
2022-08-21T07:37:58.000Z,58.7
2022-08-21T07:49:58.287Z,51.9
2022-08-21T08:01:58.402Z,55.4
2022-08-21T08:13:58.227Z,55.2
2022-08-21T08:25:58.456Z,58.2
2022-08-21T08:37:58.466Z,48.1
2022-08-21T08:49:58.048Z,44.7
2022-08-21T09:01:58.320Z,47.3
2022-08-21T09:13:58.220Z,45.6
2022-08-21T09:25:58.115Z,39.1
2022-08-21T09:37:58.193Z,50.0
2022-08-21T09:49:58.335Z,46.4
2022-08-21T10:01:58.436Z,38.9
2022-08-21T10:13:58.483Z,44.2
2022-08-21T10:26:13.474Z,40.7
2022-08-21T10:37:58.912Z,41.2
2022-08-21T10:49:58.847Z,34.1
2022-08-21T11:01:58.042Z,33.1
2022-08-21T11:13:58.329Z,37.6
2022-08-21T11:25:58.239Z,34.2
2022-08-21T11:37:58.472Z,40.0
2022-08-21T11:49:58.238Z,40.1
2022-08-21T12:01:58.284Z,37.9
2022-08-21T12:13:58.528Z,41.0
2022-08-21T12:25:58.206Z,39.6
2022-08-21T12:37:58.225Z,32.0
2022-08-21T12:49:58.286Z,38.5
2022-08-21T13:01:58.350Z,32.2
2022-08-21T13:14:02.439Z,33.2
2022-08-21T13:25:57.886Z,28.2
2022-08-21T13:37:58.271Z,29.9
2022-08-21T13:49:59.377Z,33.5
2022-08-21T14:01:58.382Z,29.5
2022-08-21T14:13:57.869Z,28.2
2022-08-21T14:25:57.931Z,37.6
2022-08-21T14:37:57.913Z,29.1
2022-08-21T14:49:57.967Z,33.7
2022-08-21T15:01:57.919Z,28.0
2022-08-21T15:13:57.940Z,29.6
2022-08-21T15:25:57.885Z,30.9
2022-08-21T15:37:57.859Z,35.2
2022-08-21T15:49:57.878Z,36.7
2022-08-21T16:01:57.881Z,39.1
2022-08-21T16:13:57.868Z,36.9
2022-08-21T16:25:57.836Z,37.1
2022-08-21T16:37:57.827Z,38.9
2022-08-21T16:49:57.863Z,37.6
2022-08-21T17:01:57.843Z,39.4
2022-08-21T17:13:57.858Z,41.8
2022-08-21T17:25:57.908Z,44.9
2022-08-21T17:37:57.899Z,45.8
2022-08-21T17:49:57.848Z,46.9
2022-08-21T18:01:57.914Z,47.4
2022-08-21T18:13:57.862Z,48.5
2022-08-21T18:25:57.854Z,49.8
2022-08-21T18:37:57.878Z,53.6
2022-08-21T18:49:57.881Z,54.6
2022-08-21T19:01:57.865Z,55.2
2022-08-21T19:13:57.864Z,55.8
2022-08-21T19:26:00.534Z,56.3
2022-08-21T19:37:57.820Z,57.1
2022-08-21T19:49:57.879Z,56.8
2022-08-21T20:01:57.848Z,57.6
2022-08-21T20:13:57.816Z,58.2
2022-08-21T20:25:57.876Z,58.6
2022-08-21T20:37:58.986Z,59.4
2022-08-21T20:49:59.481Z,60.5
2022-08-21T21:01:57.868Z,61.1
2022-08-21T21:13:57.823Z,62.5
2022-08-21T21:25:57.861Z,62.9
2022-08-21T21:37:57.859Z,63.3
2022-08-21T21:49:57.831Z,64.5
2022-08-21T22:01:57.861Z,65.1
2022-08-21T22:13:57.846Z,65.3
2022-08-21T22:25:57.859Z,65.5
2022-08-21T22:37:57.845Z,67.2
2022-08-21T23:01:57.842Z,67.4
2022-08-21T23:13:57.863Z,67.3
2022-08-21T23:25:57.862Z,67.4
2022-08-21T23:37:57.875Z,68.9
2022-08-21T23:49:57.870Z,69.0
